Terminal Aerodrome Forecast
Issued by NWS

Home | Current Version | Previous Version | Text Only | Print | Product List | Glossary On
Versions: 1 2 3 4 5 6 7 8 9 10 11 12 13 14 15 16 17
000
FTUS45 KRIW 242019 AAA
TAFCPR
TAF AMD
KCPR 242019Z 2420/2518 10013G20KT P6SM VCTS SCT050CB BKN080
      TEMPO 2420/2422 VRB24G35KT -TSRA
     FM250200 23011KT P6SM SCT060
     FM251300 23014G22KT P6SM VCSH SCT050 BKN080=

USA.gov is the U.S. government's official web portal to all federal, state and local government web resources and services.